createdAt,value
2022-10-14T00:01:53.662Z,23.57
2022-10-14T00:04:26.048Z,22.67
2022-10-14T00:06:54.305Z,22.70
2022-10-14T00:09:23.639Z,23.40
2022-10-14T00:11:52.316Z,27.10
2022-10-14T00:14:21.912Z,28.37
2022-10-14T00:16:58.353Z,27.97
2022-10-14T00:19:27.048Z,27.93
2022-10-14T00:21:55.245Z,26.60
2022-10-14T00:24:24.861Z,27.50
2022-10-14T00:26:53.335Z,24.53
2022-10-14T00:29:22.308Z,24.33
2022-10-14T00:31:52.891Z,23.73
2022-10-14T00:34:22.762Z,23.10
2022-10-14T00:36:52.614Z,22.83
2022-10-14T00:39:22.699Z,23.57
2022-10-14T00:41:52.308Z,23.77
2022-10-14T00:44:25.789Z,23.43
2022-10-14T00:46:56.805Z,24.60
2022-10-14T00:49:34.056Z,23.40
2022-10-14T00:52:14.279Z,22.73
2022-10-14T00:55:02.812Z,23.03
2022-10-14T00:57:30.888Z,22.83
2022-10-14T01:00:07.077Z,24.23
2022-10-14T01:02:35.383Z,23.13
2022-10-14T01:05:06.419Z,24.30
2022-10-14T01:07:48.704Z,24.87
2022-10-14T01:10:25.644Z,27.07
2022-10-14T01:13:11.106Z,28.17
2022-10-14T01:16:09.435Z,28.47
2022-10-14T01:18:51.109Z,27.73
2022-10-14T01:21:45.095Z,28.20
2022-10-14T01:24:44.691Z,27.33
2022-10-14T01:27:47.760Z,25.90
2022-10-14T01:30:23.946Z,25.63
2022-10-14T01:33:36.952Z,25.77
2022-10-14T01:36:18.553Z,25.23
2022-10-14T01:39:16.810Z,26.27
2022-10-14T01:41:55.480Z,26.03
2022-10-14T01:44:28.253Z,28.73
2022-10-14T01:46:58.892Z,31.60
2022-10-14T01:49:41.413Z,32.07
2022-10-14T01:52:20.101Z,33.70
2022-10-14T01:54:52.561Z,33.90
2022-10-14T01:57:26.045Z,33.30
2022-10-14T01:59:59.197Z,34.53
2022-10-14T02:02:27.288Z,34.30
2022-10-14T02:04:58.300Z,36.00
2022-10-14T02:07:40.310Z,35.27
2022-10-14T02:10:32.073Z,35.30
2022-10-14T02:13:39.206Z,36.07
2022-10-14T02:16:40.806Z,37.77
2022-10-14T02:19:50.293Z,36.27
2022-10-14T02:22:45.384Z,38.47
2022-10-14T02:25:30.491Z,36.00
2022-10-14T02:30:54.259Z,36.67
2022-10-14T02:33:27.608Z,38.20
2022-10-14T02:35:58.097Z,36.73
2022-10-14T02:38:27.155Z,36.90
2022-10-14T02:40:55.924Z,37.23
2022-10-14T02:43:24.382Z,35.63
2022-10-14T02:45:58.433Z,36.37
2022-10-14T02:48:26.387Z,35.00
2022-10-14T02:50:55.212Z,34.37
2022-10-14T02:53:23.316Z,35.97
2022-10-14T02:55:52.084Z,33.93
2022-10-14T02:58:20.265Z,35.53
2022-10-14T03:00:54.963Z,34.70
2022-10-14T03:03:25.820Z,34.80
2022-10-14T03:05:54.275Z,35.03
2022-10-14T03:08:22.273Z,34.63
2022-10-14T03:10:51.199Z,34.50
2022-10-14T03:13:20.643Z,34.83
2022-10-14T03:15:52.890Z,32.40
2022-10-14T03:18:24.372Z,34.23
2022-10-14T03:21:00.715Z,34.43
2022-10-14T03:23:35.267Z,32.70
2022-10-14T03:26:04.585Z,33.93
2022-10-14T03:28:40.920Z,32.60
2022-10-14T03:31:33.707Z,33.57
2022-10-14T03:34:23.742Z,33.03
2022-10-14T03:37:03.858Z,31.37
2022-10-14T03:39:33.291Z,32.30
2022-10-14T03:42:06.307Z,30.97
2022-10-14T03:44:43.986Z,31.20
2022-10-14T03:47:18.334Z,29.80
2022-10-14T03:49:50.464Z,30.83
2022-10-14T03:52:37.596Z,29.23
2022-10-14T03:55:13.361Z,31.00
2022-10-14T03:57:44.280Z,29.70
2022-10-14T04:00:13.308Z,30.03
2022-10-14T04:02:55.487Z,29.20
2022-10-14T04:05:39.868Z,29.13
2022-10-14T04:08:25.290Z,29.50
2022-10-14T04:10:58.748Z,30.40
2022-10-14T04:13:32.733Z,28.43
2022-10-14T04:16:10.100Z,29.17
2022-10-14T04:18:52.753Z,30.03
2022-10-14T04:21:22.504Z,29.57
2022-10-14T04:23:53.389Z,29.53
2022-10-14T04:26:34.012Z,29.87
2022-10-14T04:29:03.580Z,31.43
2022-10-14T04:31:40.547Z,29.30
2022-10-14T04:34:07.986Z,29.43
2022-10-14T04:36:40.814Z,29.43
2022-10-14T04:39:23.237Z,29.47
2022-10-14T04:41:53.032Z,29.83
2022-10-14T04:44:24.760Z,29.17
2022-10-14T04:46:58.567Z,28.57
2022-10-14T04:49:27.248Z,27.47
2022-10-14T04:52:20.433Z,27.77
2022-10-14T04:55:04.542Z,27.37
2022-10-14T04:57:46.974Z,27.83
2022-10-14T05:00:34.299Z,26.30
2022-10-14T05:03:24.254Z,26.77
2022-10-14T05:05:53.316Z,26.93
2022-10-14T05:08:23.580Z,27.37
2022-10-14T05:10:57.800Z,26.97
2022-10-14T05:14:03.501Z,26.87
2022-10-14T05:16:36.855Z,26.17
2022-10-14T05:19:07.269Z,26.00
2022-10-14T05:21:38.226Z,25.83
2022-10-14T05:24:33.932Z,26.30
2022-10-14T05:27:03.453Z,25.13
2022-10-14T05:29:33.829Z,24.93
2022-10-14T05:32:04.860Z,25.40
2022-10-14T05:34:58.798Z,24.27
2022-10-14T05:37:48.723Z,25.13
2022-10-14T05:40:19.862Z,26.13
2022-10-14T05:42:50.855Z,26.07
2022-10-14T05:45:39.249Z,25.23
2022-10-14T05:48:07.245Z,24.43
2022-10-14T05:50:40.173Z,23.43
2022-10-14T05:53:26.238Z,23.43
2022-10-14T05:56:13.325Z,22.60
2022-10-14T05:58:41.461Z,22.20
2022-10-14T06:03:54.529Z,24.03
2022-10-14T06:06:28.942Z,23.40
2022-10-14T06:08:58.952Z,23.83
2022-10-14T06:11:34.802Z,24.10
2022-10-14T06:14:04.822Z,24.03
2022-10-14T06:16:34.683Z,24.00
2022-10-14T06:19:18.925Z,24.77
2022-10-14T06:21:49.429Z,24.73
2022-10-14T06:24:19.721Z,24.63
2022-10-14T06:29:37.671Z,23.57
2022-10-14T06:32:08.019Z,23.50
2022-10-14T06:37:20.078Z,23.30
2022-10-14T06:39:51.815Z,23.73
2022-10-14T06:42:23.020Z,22.33
2022-10-14T06:44:52.377Z,22.97
2022-10-14T06:47:21.368Z,23.33
2022-10-14T06:49:49.350Z,23.13
2022-10-14T06:52:19.322Z,23.77
2022-10-14T06:54:48.414Z,23.43
2022-10-14T06:57:19.616Z,24.27
2022-10-14T06:59:49.937Z,24.07
2022-10-14T07:02:18.694Z,24.90
2022-10-14T07:04:48.637Z,24.43
2022-10-14T07:07:19.701Z,24.40
2022-10-14T07:09:51.413Z,25.33
2022-10-14T07:12:20.662Z,26.40
2022-10-14T07:14:49.279Z,26.30
2022-10-14T07:17:20.241Z,26.33
2022-10-14T07:19:49.083Z,25.20
2022-10-14T07:22:18.829Z,25.70
2022-10-14T07:24:56.931Z,25.03
2022-10-14T07:27:25.362Z,26.20
2022-10-14T07:29:53.152Z,25.60
2022-10-14T07:32:21.246Z,26.27
2022-10-14T07:34:58.858Z,26.13
2022-10-14T07:37:26.275Z,25.70
2022-10-14T07:39:55.327Z,25.93
2022-10-14T07:42:23.280Z,25.63
2022-10-14T07:47:36.316Z,25.93
2022-10-14T07:50:05.439Z,26.13
2022-10-14T07:52:34.075Z,28.60
2022-10-14T07:55:05.757Z,28.37
2022-10-14T07:57:33.301Z,27.27
2022-10-14T08:00:06.475Z,32.20
2022-10-14T08:02:41.264Z,33.87
2022-10-14T08:07:59.286Z,26.27
2022-10-14T08:10:27.994Z,30.70
2022-10-14T08:12:58.357Z,25.67
2022-10-14T08:15:29.796Z,26.17
2022-10-14T08:18:00.719Z,31.93
2022-10-14T08:20:32.992Z,31.87
2022-10-14T08:23:01.090Z,30.47
2022-10-14T08:25:28.827Z,25.77
2022-10-14T08:27:58.663Z,24.40
2022-10-14T08:30:27.098Z,24.00
2022-10-14T08:32:55.451Z,23.77
2022-10-14T08:35:24.282Z,25.33
2022-10-14T08:37:59.896Z,26.03
2022-10-14T08:40:35.876Z,25.63
2022-10-14T08:43:21.867Z,23.40
2022-10-14T08:45:58.204Z,20.53
2022-10-14T08:48:28.906Z,20.83
2022-10-14T08:51:05.295Z,21.00
2022-10-14T08:53:41.454Z,20.10
2022-10-14T08:56:12.314Z,20.13
2022-10-14T08:58:50.506Z,20.73
2022-10-14T09:04:17.034Z,21.47
2022-10-14T09:09:45.505Z,20.70
2022-10-14T09:12:17.581Z,20.53
2022-10-14T09:15:33.282Z,20.20
2022-10-14T09:18:32.632Z,19.67
2022-10-14T09:21:08.688Z,21.33
2022-10-14T09:23:37.613Z,19.33
2022-10-14T09:26:20.297Z,19.47
2022-10-14T09:28:53.140Z,19.97
2022-10-14T09:31:27.142Z,22.07
2022-10-14T09:33:59.783Z,19.93
2022-10-14T09:36:30.915Z,19.43
2022-10-14T09:39:03.697Z,22.03
2022-10-14T09:41:35.808Z,20.30
2022-10-14T09:44:20.749Z,20.43
2022-10-14T09:47:20.298Z,20.03
2022-10-14T09:49:51.548Z,18.13
2022-10-14T09:52:26.035Z,17.90
2022-10-14T09:55:00.882Z,17.63
2022-10-14T09:57:29.544Z,18.97
2022-10-14T10:00:05.819Z,19.43
2022-10-14T10:02:55.131Z,19.83
2022-10-14T10:05:27.929Z,21.63
2022-10-14T10:08:17.330Z,20.63
2022-10-14T10:11:15.821Z,18.77
2022-10-14T10:13:49.175Z,18.10
2022-10-14T10:16:35.144Z,16.57
2022-10-14T10:19:35.835Z,16.30
2022-10-14T10:22:26.765Z,16.03
2022-10-14T10:25:09.979Z,16.00
2022-10-14T10:27:48.520Z,15.77
2022-10-14T10:30:22.217Z,16.00
2022-10-14T10:33:16.432Z,14.83
2022-10-14T10:35:54.821Z,13.27
2022-10-14T10:38:59.926Z,12.27
2022-10-14T10:41:48.505Z,12.60
2022-10-14T10:44:31.724Z,10.90
2022-10-14T10:47:45.639Z,11.03
2022-10-14T10:50:37.363Z,10.43
2022-10-14T10:53:23.322Z,10.10
2022-10-14T10:56:16.231Z,9.63
2022-10-14T10:58:58.787Z,7.73
2022-10-14T11:01:59.858Z,4.80
2022-10-14T11:04:45.319Z,5.63
2022-10-14T11:07:43.360Z,6.00
2022-10-14T11:10:48.086Z,5.13
2022-10-14T11:13:37.010Z,4.70
2022-10-14T11:16:34.978Z,4.20
2022-10-14T11:19:12.298Z,4.23
2022-10-14T11:21:57.417Z,4.40
2022-10-14T11:24:54.592Z,4.40
2022-10-14T11:27:57.761Z,4.60
2022-10-14T11:30:44.309Z,4.20
2022-10-14T11:33:35.965Z,3.90
2022-10-14T11:36:20.072Z,3.77
2022-10-14T11:39:05.959Z,3.80
2022-10-14T11:42:13.668Z,3.80
2022-10-14T11:44:43.003Z,4.00
2022-10-14T11:47:20.692Z,3.70
2022-10-14T11:50:01.945Z,4.00
2022-10-14T11:52:37.641Z,3.60
2022-10-14T11:55:23.553Z,3.80
2022-10-14T11:58:13.399Z,3.70
2022-10-14T12:00:53.938Z,3.30
2022-10-14T12:03:58.758Z,3.40
2022-10-14T12:06:35.822Z,3.70
2022-10-14T12:09:44.521Z,3.40
2022-10-14T12:12:18.833Z,3.23
2022-10-14T12:14:55.420Z,3.43
2022-10-14T12:17:34.171Z,3.53
2022-10-14T12:20:22.364Z,3.93
2022-10-14T12:22:51.386Z,3.73
2022-10-14T12:25:24.066Z,3.40
2022-10-14T12:27:52.382Z,3.20
2022-10-14T12:30:43.040Z,2.80
2022-10-14T12:33:22.328Z,3.10
2022-10-14T12:36:01.507Z,3.00
2022-10-14T12:38:31.402Z,2.90
2022-10-14T12:41:32.932Z,3.03
2022-10-14T12:44:03.781Z,3.20
2022-10-14T12:46:31.556Z,3.07
2022-10-14T12:49:00.432Z,3.10
2022-10-14T12:51:27.883Z,2.90
2022-10-14T12:54:07.918Z,4.07
2022-10-14T12:56:40.226Z,3.00
2022-10-14T12:59:22.085Z,2.90
2022-10-14T13:01:56.380Z,3.20
2022-10-14T13:04:24.108Z,2.77
2022-10-14T13:07:38.877Z,2.70
2022-10-14T13:10:26.646Z,2.50
2022-10-14T13:12:54.475Z,3.00
2022-10-14T13:15:48.559Z,2.77
2022-10-14T13:18:38.004Z,2.90
2022-10-14T13:21:07.452Z,3.23
2022-10-14T13:23:43.237Z,3.00
2022-10-14T13:26:41.461Z,3.17
2022-10-14T13:29:24.578Z,3.10
2022-10-14T13:32:31.179Z,3.30
2022-10-14T13:35:25.606Z,3.30
2022-10-14T13:38:06.306Z,3.30
2022-10-14T13:40:51.632Z,3.50
2022-10-14T13:43:41.246Z,3.50
2022-10-14T13:46:27.323Z,3.30
2022-10-14T13:49:06.732Z,3.57
2022-10-14T13:51:55.100Z,3.67
2022-10-14T13:54:25.439Z,3.47
2022-10-14T14:00:42.870Z,3.30
2022-10-14T14:03:24.721Z,3.83
2022-10-14T14:05:53.226Z,3.80
2022-10-14T14:08:46.436Z,3.67
2022-10-14T14:11:20.685Z,3.43
2022-10-14T14:13:57.513Z,3.63
2022-10-14T14:16:40.159Z,3.70
2022-10-14T14:19:32.494Z,4.30
2022-10-14T14:22:23.410Z,3.80
2022-10-14T14:24:53.264Z,3.80
2022-10-14T14:27:27.154Z,4.20
2022-10-14T14:29:55.538Z,4.50
2022-10-14T14:32:31.476Z,4.27
2022-10-14T14:35:00.293Z,6.20
2022-10-14T14:37:53.353Z,6.50
2022-10-14T14:40:27.484Z,5.70
2022-10-14T14:42:59.398Z,5.60
2022-10-14T14:45:35.495Z,6.57
2022-10-14T14:48:06.515Z,8.23
2022-10-14T14:50:42.928Z,8.30
2022-10-14T14:53:22.476Z,8.17
2022-10-14T14:55:55.800Z,7.83
2022-10-14T14:58:43.479Z,8.00
2022-10-14T15:01:28.073Z,7.90
2022-10-14T15:04:12.685Z,7.57
2022-10-14T15:06:57.961Z,7.20
2022-10-14T15:09:41.237Z,7.50
2022-10-14T15:12:17.493Z,7.77
2022-10-14T15:14:49.153Z,7.30
2022-10-14T15:17:46.107Z,6.93
2022-10-14T15:20:37.221Z,6.63
2022-10-14T15:23:43.939Z,6.13
2022-10-14T15:26:27.784Z,6.30
2022-10-14T15:29:25.013Z,6.23
2022-10-14T15:32:01.536Z,5.87
2022-10-14T15:34:29.295Z,6.20
2022-10-14T15:36:56.749Z,5.97
2022-10-14T15:39:24.320Z,5.90
2022-10-14T15:41:52.119Z,6.03
2022-10-14T15:44:19.598Z,6.10
2022-10-14T15:47:08.534Z,6.97
2022-10-14T15:49:42.151Z,7.43
2022-10-14T15:52:20.470Z,8.20
2022-10-14T15:54:50.921Z,8.33
2022-10-14T15:57:18.307Z,8.83
2022-10-14T15:59:49.191Z,9.27
2022-10-14T16:02:28.263Z,9.10
2022-10-14T16:07:45.494Z,8.33
2022-10-14T16:10:16.673Z,8.87
2022-10-14T16:12:44.200Z,8.73
2022-10-14T16:15:28.332Z,8.27
2022-10-14T16:17:55.819Z,8.30
2022-10-14T16:20:23.668Z,7.47
2022-10-14T16:22:51.112Z,7.23
2022-10-14T16:25:39.912Z,7.57
2022-10-14T16:28:10.036Z,7.33
2022-10-14T16:30:40.637Z,8.30
2022-10-14T16:33:08.216Z,7.97
2022-10-14T16:35:35.663Z,7.87
2022-10-14T16:38:03.808Z,8.70
2022-10-14T16:40:35.828Z,8.90
2022-10-14T16:43:06.688Z,8.70
2022-10-14T16:45:35.286Z,9.43
2022-10-14T16:48:03.174Z,9.03
2022-10-14T16:50:30.558Z,10.47
2022-10-14T16:53:16.718Z,11.00
2022-10-14T16:55:44.711Z,12.07
2022-10-14T16:58:12.321Z,14.57
2022-10-14T17:00:40.198Z,14.83
2022-10-14T17:03:10.504Z,14.77
2022-10-14T17:05:38.059Z,14.73
2022-10-14T17:08:10.041Z,14.67
2022-10-14T17:10:39.053Z,14.33
2022-10-14T17:13:06.476Z,14.90
2022-10-14T17:15:36.794Z,14.23
2022-10-14T17:18:04.583Z,13.50
2022-10-14T17:20:32.092Z,12.30
2022-10-14T17:23:00.811Z,11.33
2022-10-14T17:25:28.637Z,11.87
2022-10-14T17:27:56.429Z,11.33
2022-10-14T17:30:25.059Z,11.17
2022-10-14T17:32:52.795Z,12.17
2022-10-14T17:35:23.573Z,12.43
2022-10-14T17:37:52.239Z,12.07
2022-10-14T17:40:19.856Z,11.77
2022-10-14T17:42:47.397Z,12.03
2022-10-14T17:45:15.355Z,12.77
2022-10-14T17:47:43.147Z,12.63
2022-10-14T17:50:11.384Z,12.70
2022-10-14T17:52:39.129Z,12.77
2022-10-14T17:55:07.495Z,12.57
2022-10-14T17:57:35.269Z,13.07
2022-10-14T18:00:03.780Z,14.80
2022-10-14T18:02:42.195Z,15.77
2022-10-14T18:05:10.376Z,16.27
2022-10-14T18:07:39.053Z,16.43
2022-10-14T18:10:07.047Z,18.87
2022-10-14T18:12:36.379Z,19.10
2022-10-14T18:15:07.208Z,15.70
2022-10-14T18:17:38.148Z,15.00
2022-10-14T18:20:06.632Z,13.77
2022-10-14T18:22:35.298Z,12.90
2022-10-14T18:25:05.565Z,12.77
2022-10-14T18:27:33.516Z,13.93
2022-10-14T18:30:01.483Z,16.17
2022-10-14T18:32:30.272Z,15.50
2022-10-14T18:35:01.324Z,15.20
2022-10-14T18:37:29.195Z,15.03
2022-10-14T18:39:56.889Z,14.23
2022-10-14T18:42:25.173Z,14.60
2022-10-14T18:44:53.825Z,14.97
2022-10-14T18:47:25.235Z,14.20
2022-10-14T18:49:53.545Z,15.27
2022-10-14T18:52:21.678Z,15.03
2022-10-14T18:54:49.655Z,16.77
2022-10-14T18:57:19.034Z,15.53
2022-10-14T18:59:47.851Z,16.20
2022-10-14T19:02:16.171Z,15.40
2022-10-14T19:04:44.003Z,15.30
2022-10-14T19:07:12.118Z,27.17
2022-10-14T19:09:41.275Z,34.00
2022-10-14T19:12:41.123Z,34.80
2022-10-14T19:15:11.501Z,29.87
2022-10-14T19:17:40.523Z,21.93
2022-10-14T19:20:08.740Z,16.83
2022-10-14T19:22:41.035Z,15.67
2022-10-14T19:25:09.581Z,16.33
2022-10-14T19:27:38.367Z,16.83
2022-10-14T19:30:09.025Z,16.17
2022-10-14T19:32:37.404Z,16.87
2022-10-14T19:35:10.587Z,15.77
2022-10-14T19:37:38.633Z,16.37
2022-10-14T19:40:08.364Z,16.37
2022-10-14T19:42:37.633Z,16.10
2022-10-14T19:45:06.272Z,16.20
2022-10-14T19:47:35.005Z,15.60
2022-10-14T19:50:03.583Z,16.87
2022-10-14T19:52:31.279Z,15.70
2022-10-14T19:54:58.864Z,15.57
2022-10-14T19:57:26.818Z,15.67
2022-10-14T19:59:54.830Z,15.80
2022-10-14T20:02:22.602Z,16.00
2022-10-14T20:04:54.077Z,16.53
2022-10-14T20:07:21.881Z,16.13
2022-10-14T20:09:49.915Z,16.20
2022-10-14T20:12:17.877Z,15.93
2022-10-14T20:14:45.469Z,16.33
2022-10-14T20:17:13.311Z,17.20
2022-10-14T20:19:41.267Z,17.90
2022-10-14T20:22:08.770Z,17.10
2022-10-14T20:24:40.612Z,15.43
2022-10-14T20:27:11.067Z,16.13
2022-10-14T20:29:39.607Z,16.47
2022-10-14T20:32:07.143Z,16.47
2022-10-14T20:34:35.816Z,16.70
2022-10-14T20:37:05.105Z,18.00
2022-10-14T20:39:32.661Z,16.83
2022-10-14T20:42:00.208Z,17.17
2022-10-14T20:44:28.642Z,18.70
2022-10-14T20:46:56.165Z,18.97
2022-10-14T20:49:23.565Z,18.30
2022-10-14T20:51:50.921Z,17.40
2022-10-14T20:54:18.370Z,17.53
2022-10-14T20:56:45.802Z,17.00
2022-10-14T20:59:14.468Z,18.03
2022-10-14T21:01:42.009Z,17.30
2022-10-14T21:04:09.547Z,16.77
2022-10-14T21:06:38.814Z,17.10
2022-10-14T21:09:06.406Z,16.23
2022-10-14T21:11:35.184Z,18.10
2022-10-14T21:14:02.706Z,17.17
2022-10-14T21:16:32.397Z,15.57
2022-10-14T21:19:05.530Z,15.73
2022-10-14T21:21:42.476Z,16.70
2022-10-14T21:24:13.844Z,15.47
2022-10-14T21:26:41.239Z,15.97
2022-10-14T21:29:08.736Z,16.77
2022-10-14T21:31:36.334Z,16.50
2022-10-14T21:34:06.417Z,18.03
2022-10-14T21:36:37.801Z,18.70
2022-10-14T21:39:07.751Z,17.90
2022-10-14T21:41:35.484Z,17.37
2022-10-14T21:44:03.359Z,17.77
2022-10-14T21:46:30.804Z,18.17
2022-10-14T21:48:58.772Z,17.20
2022-10-14T21:51:29.129Z,17.23
2022-10-14T21:53:57.516Z,17.90
2022-10-14T21:56:26.301Z,18.07
2022-10-14T21:58:54.012Z,24.27
2022-10-14T22:01:26.186Z,30.93
2022-10-14T22:03:56.264Z,29.57
2022-10-14T22:06:23.724Z,28.37
2022-10-14T22:08:54.687Z,29.27
2022-10-14T22:11:25.492Z,31.30
2022-10-14T22:13:54.349Z,32.27
2022-10-14T22:16:22.435Z,31.93
2022-10-14T22:18:51.808Z,27.13
2022-10-14T22:21:22.098Z,27.07
2022-10-14T22:23:51.562Z,25.40
2022-10-14T22:26:21.584Z,25.80
2022-10-14T22:28:52.063Z,20.47
2022-10-14T22:31:21.232Z,20.10
2022-10-14T22:33:50.049Z,19.57
2022-10-14T22:36:24.071Z,18.30
2022-10-14T22:38:53.927Z,17.97
2022-10-14T22:41:22.799Z,16.90
2022-10-14T22:43:52.338Z,16.80
2022-10-14T22:46:26.154Z,17.83
2022-10-14T22:48:57.616Z,17.63
2022-10-14T22:51:33.772Z,17.33
2022-10-14T22:54:01.180Z,18.57
2022-10-14T22:56:30.685Z,18.40
2022-10-14T22:59:00.376Z,18.63
2022-10-14T23:01:28.513Z,19.20
2022-10-14T23:03:57.602Z,20.13
2022-10-14T23:06:25.706Z,20.27
2022-10-14T23:08:54.521Z,18.50
2022-10-14T23:11:23.720Z,19.30
2022-10-14T23:13:51.651Z,20.43
2022-10-14T23:16:27.382Z,18.80
2022-10-14T23:18:55.081Z,18.87
2022-10-14T23:21:25.492Z,20.97
2022-10-14T23:23:55.642Z,20.33
2022-10-14T23:26:25.210Z,22.03
2022-10-14T23:28:57.743Z,20.27
2022-10-14T23:31:28.561Z,18.83
2022-10-14T23:34:00.388Z,17.63
2022-10-14T23:36:28.756Z,17.73
2022-10-14T23:38:56.357Z,17.97
2022-10-14T23:41:25.224Z,17.37
2022-10-14T23:43:52.990Z,17.87
2022-10-14T23:46:20.869Z,17.73
2022-10-14T23:48:55.896Z,17.77
2022-10-14T23:51:35.157Z,18.17
2022-10-14T23:54:02.593Z,18.87
2022-10-14T23:56:30.260Z,20.80
2022-10-14T23:58:57.669Z,20.87
